Time,TemperatureF,DewpointF,PressureIn,WindDirection,WindDirectionDegrees,WindSpeedMPH,WindSpeedGustMPH,Humidity,HourlyPrecipIn,Conditions,Clouds,dailyrainin,SoftwareType,DateUTC
2013-11-08 00:04:00,30.7,29.4,30.36,SW,226,0.0,2.0,95,0.00,,,0.00,Wunderground v.1.15,2013-11-08 06:04:00,
2013-11-08 00:09:00,30.7,29.7,30.36,SW,226,0.0,2.0,96,0.00,,,0.00,Wunderground v.1.15,2013-11-08 06:09:00,
2013-11-08 00:14:00,30.6,29.6,30.36,SW,226,0.0,2.0,96,0.00,,,0.00,Wunderground v.1.15,2013-11-08 06:14:00,
2013-11-08 00:24:00,30.4,29.4,30.36,SW,226,0.0,2.0,96,0.00,,,0.00,Wunderground v.1.15,2013-11-08 06:24:00,
2013-11-08 00:29:00,30.7,30.0,30.36,SW,226,0.0,2.0,97,0.00,,,0.00,Wunderground v.1.15,2013-11-08 06:29:00,
2013-11-08 00:34:00,30.6,29.6,30.36,SW,226,0.0,2.0,96,0.00,,,0.00,Wunderground v.1.15,2013-11-08 06:34:00,
2013-11-08 00:39:00,30.4,29.4,30.36,SW,226,0.0,2.0,96,0.00,,,0.00,Wunderground v.1.15,2013-11-08 06:39:00,
2013-11-08 00:44:00,30.6,29.9,30.37,SW,226,0.0,2.0,97,0.00,,,0.00,Wunderground v.1.15,2013-11-08 06:44:00,
2013-11-08 00:54:00,30.0,29.0,30.37,SW,226,0.0,2.0,96,0.00,,,0.00,Wunderground v.1.15,2013-11-08 06:54:00,
2013-11-08 00:59:00,30.6,29.9,30.37,SW,226,0.0,2.0,97,0.00,,,0.00,Wunderground v.1.15,2013-11-08 06:59:00,
2013-11-08 01:04:00,30.4,29.7,30.37,SW,226,0.0,2.0,97,0.00,,,0.00,Wunderground v.1.15,2013-11-08 07:04:00,
2013-11-08 01:09:00,30.0,29.0,30.37,SW,226,0.0,2.0,96,0.00,,,0.00,Wunderground v.1.15,2013-11-08 07:09:00,
2013-11-08 01:14:00,29.7,28.7,30.37,SW,226,0.0,2.0,96,0.00,,,0.00,Wunderground v.1.15,2013-11-08 07:14:00,
2013-11-08 01:24:00,30.2,29.5,30.36,SW,226,0.0,2.0,97,0.00,,,0.00,Wunderground v.1.15,2013-11-08 07:24:00,
2013-11-08 01:29:00,30.5,29.8,30.36,SW,226,0.0,2.0,97,0.00,,,0.00,Wunderground v.1.15,2013-11-08 07:29:00,
2013-11-08 01:34:00,30.1,29.4,30.36,SW,226,0.0,2.0,97,0.00,,,0.00,Wunderground v.1.15,2013-11-08 07:34:00,
2013-11-08 01:39:00,29.7,29.0,30.36,SW,226,0.0,2.0,97,0.00,,,0.00,Wunderground v.1.15,2013-11-08 07:39:00,
2013-11-08 01:44:00,29.9,29.2,30.36,SW,226,0.0,2.0,97,0.00,,,0.00,Wunderground v.1.15,2013-11-08 07:44:00,
2013-11-08 01:54:00,30.1,29.4,30.35,SW,226,0.0,2.0,97,0.00,,,0.00,Wunderground v.1.15,2013-11-08 07:54:00,
2013-11-08 01:59:00,29.9,29.2,30.35,SW,226,0.0,2.0,97,0.00,,,0.00,Wunderground v.1.15,2013-11-08 07:59:00,
2013-11-08 02:09:00,29.6,28.9,30.35,SW,226,0.0,2.0,97,0.00,,,0.00,Wunderground v.1.15,2013-11-08 08:09:00,
2013-11-08 02:19:00,29.6,28.9,30.35,SW,226,0.0,2.0,97,0.00,,,0.00,Wunderground v.1.15,2013-11-08 08:19:00,
2013-11-08 02:29:00,29.2,28.5,30.35,SW,226,0.0,2.0,97,0.00,,,0.00,Wunderground v.1.15,2013-11-08 08:29:00,
2013-11-08 02:34:00,29.2,28.5,30.35,SW,226,0.0,2.0,97,0.00,,,0.00,Wunderground v.1.15,2013-11-08 08:34:00,
2013-11-08 02:44:00,29.3,28.6,30.35,SW,226,0.0,2.0,97,0.00,,,0.00,Wunderground v.1.15,2013-11-08 08:44:00,
2013-11-08 02:54:00,29.7,29.2,30.35,SW,226,0.0,2.0,98,0.00,,,0.00,Wunderground v.1.15,2013-11-08 08:54:00,
2013-11-08 02:59:00,29.6,29.1,30.34,SW,226,0.0,2.0,98,0.00,,,0.00,Wunderground v.1.15,2013-11-08 08:59:00,
2013-11-08 03:09:00,29.1,28.4,30.35,SW,226,0.0,2.0,97,0.00,,,0.00,Wunderground v.1.15,2013-11-08 09:09:00,
2013-11-08 03:19:00,28.8,28.1,30.35,SW,226,0.0,2.0,97,0.00,,,0.00,Wunderground v.1.15,2013-11-08 09:19:00,
2013-11-08 03:29:00,28.8,28.3,30.34,SW,226,0.0,2.0,98,0.00,,,0.00,Wunderground v.1.15,2013-11-08 09:29:00,
2013-11-08 03:34:00,28.8,28.3,30.34,SW,226,0.0,2.0,98,0.00,,,0.00,Wunderground v.1.15,2013-11-08 09:34:00,
2013-11-08 03:39:00,28.6,27.9,30.34,SW,226,0.0,2.0,97,0.00,,,0.00,Wunderground v.1.15,2013-11-08 09:39:00,
2013-11-08 03:49:00,28.3,27.6,30.35,SW,226,0.0,2.0,97,0.00,,,0.00,Wunderground v.1.15,2013-11-08 09:49:00,
2013-11-08 03:59:00,28.0,27.3,30.35,SW,226,0.0,2.0,97,0.00,,,0.00,Wunderground v.1.15,2013-11-08 09:59:00,
2013-11-08 04:04:00,28.1,27.4,30.35,SW,226,0.0,2.0,97,0.00,,,0.00,Wunderground v.1.15,2013-11-08 10:04:00,
2013-11-08 04:09:00,28.3,27.6,30.35,SW,226,0.0,2.0,97,0.00,,,0.00,Wunderground v.1.15,2013-11-08 10:09:00,
2013-11-08 04:19:00,28.6,28.1,30.35,SW,226,0.0,2.0,98,0.00,,,0.00,Wunderground v.1.15,2013-11-08 10:19:00,
2013-11-08 04:24:00,28.6,28.1,30.35,SW,226,0.0,2.0,98,0.00,,,0.00,Wunderground v.1.15,2013-11-08 10:24:00,
2013-11-08 04:34:00,28.5,27.8,30.35,WSW,248,0.0,2.0,97,0.00,,,0.00,Wunderground v.1.15,2013-11-08 10:34:00,
2013-11-08 04:44:00,28.3,27.6,30.35,West,274,0.0,2.0,97,0.00,,,0.00,Wunderground v.1.15,2013-11-08 10:44:00,
2013-11-08 04:54:00,28.8,28.3,30.34,West,274,0.0,2.0,98,0.00,,,0.00,Wunderground v.1.15,2013-11-08 10:54:00,
2013-11-08 05:04:00,29.0,28.5,30.34,West,274,0.0,2.0,98,0.00,,,0.00,Wunderground v.1.15,2013-11-08 11:04:00,
2013-11-08 05:09:00,28.8,28.3,30.34,West,274,0.0,2.0,98,0.00,,,0.00,Wunderground v.1.15,2013-11-08 11:09:00,
2013-11-08 05:14:00,28.6,27.9,30.34,West,274,0.0,2.0,97,0.00,,,0.00,Wunderground v.1.15,2013-11-08 11:14:00,
2013-11-08 05:24:00,29.2,28.7,30.33,West,274,0.0,2.0,98,0.00,,,0.00,Wunderground v.1.15,2013-11-08 11:24:00,
2013-11-08 05:34:00,29.5,29.0,30.33,West,274,0.0,2.0,98,0.00,,,0.00,Wunderground v.1.15,2013-11-08 11:34:00,
2013-11-08 05:44:00,30.2,29.7,30.33,West,274,0.0,2.0,98,0.00,,,0.00,Wunderground v.1.15,2013-11-08 11:44:00,
2013-11-08 05:49:00,30.3,29.8,30.33,West,274,0.0,2.0,98,0.00,,,0.00,Wunderground v.1.15,2013-11-08 11:49:00,
2013-11-08 05:59:00,30.5,30.0,30.33,West,274,0.0,2.0,98,0.00,,,0.00,Wunderground v.1.15,2013-11-08 11:59:00,
2013-11-08 06:09:00,31.5,31.0,30.32,West,274,0.0,2.0,98,0.00,,,0.00,Wunderground v.1.15,2013-11-08 12:09:00,
2013-11-08 06:19:00,31.3,30.8,30.32,West,274,0.0,2.0,98,0.00,,,0.00,Wunderground v.1.15,2013-11-08 12:19:00,
2013-11-08 06:29:00,31.2,30.2,30.33,NNE,16,0.0,2.0,96,0.00,,,0.00,Wunderground v.1.15,2013-11-08 12:29:00,
2013-11-08 06:39:00,29.8,28.8,30.32,North,349,0.0,2.0,96,0.00,,,0.00,Wunderground v.1.15,2013-11-08 12:39:00,
2013-11-08 06:49:00,31.2,30.7,30.32,NE,39,0.0,2.0,98,0.00,,,0.00,Wunderground v.1.15,2013-11-08 12:49:00,
2013-11-08 06:59:00,32.8,31.3,30.32,ESE,113,0.0,2.0,94,0.00,,,0.00,Wunderground v.1.15,2013-11-08 12:59:00,
2013-11-08 07:04:00,32.8,31.0,30.32,ESE,113,0.0,2.0,93,0.00,,,0.00,Wunderground v.1.15,2013-11-08 13:04:00,
2013-11-08 07:14:00,35.5,32.0,30.32,ENE,57,0.0,2.0,87,0.00,,,0.00,Wunderground v.1.15,2013-11-08 13:14:00,
2013-11-08 07:24:00,37.9,32.3,30.32,NE,55,0.0,2.0,80,0.00,,,0.00,Wunderground v.1.15,2013-11-08 13:24:00,
2013-11-08 07:34:00,40.1,32.1,30.32,NNE,14,0.0,2.0,73,0.00,,,0.00,Wunderground v.1.15,2013-11-08 13:34:00,
2013-11-08 07:39:00,40.9,32.2,30.31,NNE,22,1.0,2.0,71,0.00,,,0.00,Wunderground v.1.15,2013-11-08 13:39:00,
2013-11-08 07:49:00,42.6,32.0,30.32,ENE,70,1.0,1.0,66,0.00,,,0.00,Wunderground v.1.15,2013-11-08 13:49:00,
2013-11-08 07:54:00,43.5,32.5,30.32,NE,49,0.0,2.0,65,0.00,,,0.00,Wunderground v.1.15,2013-11-08 13:54:00,
2013-11-08 08:04:00,44.5,32.3,30.32,NNE,27,0.0,2.0,62,0.00,,,0.00,Wunderground v.1.15,2013-11-08 14:04:00,
2013-11-08 08:09:00,45.3,32.6,30.32,ENE,65,0.0,2.0,61,0.00,,,0.00,Wunderground v.1.15,2013-11-08 14:09:00,
2013-11-08 08:14:00,46.1,33.4,30.32,East,101,0.0,2.0,61,0.00,,,0.00,Wunderground v.1.15,2013-11-08 14:14:00,
2013-11-08 08:24:00,47.1,32.2,30.32,ENE,67,1.0,3.0,56,0.00,,,0.00,Wunderground v.1.15,2013-11-08 14:24:00,
2013-11-08 08:34:00,47.9,32.9,30.32,SSE,159,1.0,4.0,56,0.00,,,0.00,Wunderground v.1.15,2013-11-08 14:34:00,
2013-11-08 08:39:00,48.1,31.8,30.32,ESE,103,1.0,3.0,53,0.00,,,0.00,Wunderground v.1.15,2013-11-08 14:39:00,
2013-11-08 08:49:00,48.9,32.5,30.31,ESE,110,2.0,2.0,53,0.00,,,0.00,Wunderground v.1.15,2013-11-08 14:49:00,
2013-11-08 08:59:00,49.5,33.1,30.31,East,97,3.0,4.0,53,0.00,,,0.00,Wunderground v.1.15,2013-11-08 14:59:00,
2013-11-08 09:09:00,50.7,33.2,30.31,North,355,2.0,2.0,51,0.00,,,0.00,Wunderground v.1.15,2013-11-08 15:09:00,
2013-11-08 09:19:00,51.3,33.8,30.31,SSE,153,2.0,2.0,51,0.00,,,0.00,Wunderground v.1.15,2013-11-08 15:19:00,
2013-11-08 09:29:00,51.8,34.2,30.30,NE,38,3.0,3.0,51,0.00,,,0.00,Wunderground v.1.15,2013-11-08 15:29:00,
2013-11-08 09:34:00,52.7,34.6,30.30,ESE,118,2.0,3.0,50,0.00,,,0.00,Wunderground v.1.15,2013-11-08 15:34:00,
2013-11-08 09:44:00,53.6,34.9,30.29,ESE,115,2.0,4.0,49,0.00,,,0.00,Wunderground v.1.15,2013-11-08 15:44:00,
2013-11-08 09:54:00,54.4,35.6,30.29,ESE,113,3.0,6.0,49,0.00,,,0.00,Wunderground v.1.15,2013-11-08 15:54:00,
2013-11-08 10:04:00,55.0,35.7,30.29,ESE,106,3.0,4.0,48,0.00,,,0.00,Wunderground v.1.15,2013-11-08 16:04:00,
2013-11-08 10:09:00,55.5,35.6,30.28,SE,134,3.0,3.0,47,0.00,,,0.00,Wunderground v.1.15,2013-11-08 16:09:00,
2013-11-08 10:19:00,56.2,35.7,30.28,ENE,72,3.0,3.0,46,0.00,,,0.00,Wunderground v.1.15,2013-11-08 16:19:00,
2013-11-08 10:29:00,56.4,35.3,30.27,ESE,110,4.0,4.0,45,0.00,,,0.00,Wunderground v.1.15,2013-11-08 16:29:00,
2013-11-08 10:39:00,57.5,35.7,30.26,ESE,118,3.0,3.0,44,0.00,,,0.00,Wunderground v.1.15,2013-11-08 16:39:00,
2013-11-08 10:44:00,57.9,36.7,30.26,NE,54,3.0,3.0,45,0.00,,,0.00,Wunderground v.1.15,2013-11-08 16:44:00,
2013-11-08 10:54:00,59.2,37.3,30.26,SE,135,2.0,3.0,44,0.00,,,0.00,Wunderground v.1.15,2013-11-08 16:54:00,
2013-11-08 10:59:00,59.5,36.4,30.25,East,79,3.0,3.0,42,0.00,,,0.00,Wunderground v.1.15,2013-11-08 16:59:00,
2013-11-08 11:09:00,59.5,36.4,30.25,SE,131,4.0,4.0,42,0.00,,,0.00,Wunderground v.1.15,2013-11-08 17:09:00,
2013-11-08 11:19:00,60.0,36.8,30.24,East,91,4.0,8.0,42,0.00,,,0.00,Wunderground v.1.15,2013-11-08 17:19:00,
2013-11-08 11:24:00,60.3,37.1,30.24,East,80,4.0,8.0,42,0.00,,,0.00,Wunderground v.1.15,2013-11-08 17:24:00,
2013-11-08 11:34:00,60.9,36.4,30.23,East,99,4.0,5.0,40,0.00,,,0.00,Wunderground v.1.15,2013-11-08 17:34:00,
2013-11-08 11:44:00,61.3,36.1,30.22,ENE,66,5.0,7.0,39,0.00,,,0.00,Wunderground v.1.15,2013-11-08 17:44:00,
2013-11-08 11:49:00,61.3,37.4,30.22,ESE,114,5.0,5.0,41,0.00,,,0.00,Wunderground v.1.15,2013-11-08 17:49:00,
2013-11-08 11:54:00,61.8,37.8,30.21,ENE,75,4.0,5.0,41,0.00,,,0.00,Wunderground v.1.15,2013-11-08 17:54:00,
2013-11-08 12:04:00,62.8,37.5,30.20,East,80,4.0,4.0,39,0.00,,,0.00,Wunderground v.1.15,2013-11-08 18:04:00,
2013-11-08 12:09:00,62.4,36.4,30.20,ENE,60,5.0,5.0,38,0.00,,,0.00,Wunderground v.1.15,2013-11-08 18:09:00,
2013-11-08 12:19:00,62.6,36.6,30.19,East,84,6.0,6.0,38,0.00,,,0.00,Wunderground v.1.15,2013-11-08 18:19:00,
2013-11-08 12:29:00,63.3,36.6,30.18,SE,128,5.0,6.0,37,0.00,,,0.00,Wunderground v.1.15,2013-11-08 18:29:00,
2013-11-08 12:39:00,63.3,35.9,30.17,SSW,205,6.0,6.0,36,0.00,,,0.00,Wunderground v.1.15,2013-11-08 18:39:00,
2013-11-08 12:44:00,63.3,36.6,30.17,ESE,122,6.0,6.0,37,0.00,,,0.00,Wunderground v.1.15,2013-11-08 18:44:00,
2013-11-08 12:49:00,63.5,36.7,30.16,East,87,5.0,10.0,37,0.00,,,0.00,Wunderground v.1.15,2013-11-08 18:49:00,
2013-11-08 12:54:00,64.0,36.5,30.16,SSE,153,5.0,10.0,36,0.00,,,0.00,Wunderground v.1.15,2013-11-08 18:54:00,
2013-11-08 13:04:00,63.7,37.6,30.15,East,96,4.0,10.0,38,0.00,,,0.00,Wunderground v.1.15,2013-11-08 19:04:00,
2013-11-08 13:09:00,63.9,36.4,30.15,ESE,105,4.0,4.0,36,0.00,,,0.00,Wunderground v.1.15,2013-11-08 19:09:00,
2013-11-08 13:19:00,64.0,37.2,30.14,NE,36,5.0,5.0,37,0.00,,,0.00,Wunderground v.1.15,2013-11-08 19:19:00,
2013-11-08 13:29:00,63.9,35.7,30.13,East,91,5.0,9.0,35,0.00,,,0.00,Wunderground v.1.15,2013-11-08 19:29:00,
2013-11-08 13:34:00,63.8,37.0,30.13,WNW,294,6.0,9.0,37,0.00,,,0.00,Wunderground v.1.15,2013-11-08 19:34:00,
2013-11-08 13:44:00,63.7,36.9,30.12,ESE,105,5.0,6.0,37,0.00,,,0.00,Wunderground v.1.15,2013-11-08 19:44:00,
2013-11-08 13:49:00,63.8,36.3,30.11,ENE,67,5.0,5.0,36,0.00,,,0.00,Wunderground v.1.15,2013-11-08 19:49:00,
2013-11-08 13:54:00,63.7,36.2,30.11,NNE,16,4.0,5.0,36,0.00,,,0.00,Wunderground v.1.15,2013-11-08 19:54:00,
2013-11-08 13:59:00,63.3,35.9,30.11,ENE,70,4.0,4.0,36,0.00,,,0.00,Wunderground v.1.15,2013-11-08 19:59:00,
2013-11-08 14:04:00,63.4,36.0,30.10,ENE,72,5.0,5.0,36,0.00,,,0.00,Wunderground v.1.15,2013-11-08 20:04:00,
2013-11-08 14:14:00,63.8,36.3,30.10,East,79,5.0,5.0,36,0.00,,,0.00,Wunderground v.1.15,2013-11-08 20:14:00,
2013-11-08 14:24:00,64.1,35.9,30.09,ESE,111,4.0,7.0,35,0.00,,,0.00,Wunderground v.1.15,2013-11-08 20:24:00,
2013-11-08 14:29:00,64.2,36.7,30.09,East,89,4.0,4.0,36,0.00,,,0.00,Wunderground v.1.15,2013-11-08 20:29:00,
2013-11-08 14:34:00,64.3,36.0,30.09,NE,55,5.0,5.0,35,0.00,,,0.00,Wunderground v.1.15,2013-11-08 20:34:00,
2013-11-08 14:39:00,65.0,36.7,30.08,ESE,117,5.0,10.0,35,0.00,,,0.00,Wunderground v.1.15,2013-11-08 20:39:00,
2013-11-08 14:49:00,64.6,35.6,30.08,ENE,78,6.0,6.0,34,0.00,,,0.00,Wunderground v.1.15,2013-11-08 20:49:00,
2013-11-08 14:59:00,63.9,35.0,30.08,ESE,119,5.0,5.0,34,0.00,,,0.00,Wunderground v.1.15,2013-11-08 20:59:00,
2013-11-08 15:09:00,63.8,35.6,30.08,SE,143,5.0,6.0,35,0.00,,,0.00,Wunderground v.1.15,2013-11-08 21:09:00,
2013-11-08 15:19:00,63.4,36.0,30.07,East,81,5.0,5.0,36,0.00,,,0.00,Wunderground v.1.15,2013-11-08 21:19:00,
2013-11-08 15:29:00,63.3,36.6,30.07,East,86,4.0,4.0,37,0.00,,,0.00,Wunderground v.1.15,2013-11-08 21:29:00,
2013-11-08 15:39:00,63.1,35.7,30.07,ENE,69,5.0,13.0,36,0.00,,,0.00,Wunderground v.1.15,2013-11-08 21:39:00,
2013-11-08 15:49:00,62.7,35.3,30.06,SE,126,7.0,7.0,36,0.00,,,0.00,Wunderground v.1.15,2013-11-08 21:49:00,
2013-11-08 15:59:00,62.2,36.3,30.05,NNE,23,4.0,4.0,38,0.00,,,0.00,Wunderground v.1.15,2013-11-08 21:59:00,
2013-11-08 16:04:00,61.9,36.0,30.05,SSE,160,4.0,6.0,38,0.00,,,0.00,Wunderground v.1.15,2013-11-08 22:04:00,
2013-11-08 16:14:00,61.6,35.7,30.05,ESE,110,6.0,6.0,38,0.00,,,0.00,Wunderground v.1.15,2013-11-08 22:14:00,
2013-11-08 16:24:00,61.4,35.5,30.04,ESE,121,6.0,6.0,38,0.00,,,0.00,Wunderground v.1.15,2013-11-08 22:24:00,
2013-11-08 16:34:00,61.2,36.7,30.04,NNE,28,5.0,7.0,40,0.00,,,0.00,Wunderground v.1.15,2013-11-08 22:34:00,
2013-11-08 16:44:00,60.6,36.8,30.04,East,101,4.0,5.0,41,0.00,,,0.00,Wunderground v.1.15,2013-11-08 22:44:00,
2013-11-08 16:54:00,60.3,37.1,30.03,ENE,69,6.0,6.0,42,0.00,,,0.00,Wunderground v.1.15,2013-11-08 22:54:00,
2013-11-08 16:59:00,60.0,36.8,30.03,SE,125,5.0,6.0,42,0.00,,,0.00,Wunderground v.1.15,2013-11-08 22:59:00,
2013-11-08 17:09:00,59.8,36.6,30.04,ESE,118,7.0,7.0,42,0.00,,,0.00,Wunderground v.1.15,2013-11-08 23:09:00,
2013-11-08 17:19:00,59.2,37.3,30.03,WNW,302,5.0,5.0,44,0.00,,,0.00,Wunderground v.1.15,2013-11-08 23:19:00,
2013-11-08 17:24:00,58.9,37.0,30.03,East,97,4.0,6.0,44,0.00,,,0.00,Wunderground v.1.15,2013-11-08 23:24:00,
2013-11-08 17:34:00,58.6,36.7,30.03,SE,130,4.0,4.0,44,0.00,,,0.00,Wunderground v.1.15,2013-11-08 23:34:00,
2013-11-08 17:39:00,58.6,37.3,30.02,ESE,118,4.0,4.0,45,0.00,,,0.00,Wunderground v.1.15,2013-11-08 23:39:00,
2013-11-08 17:49:00,58.3,37.0,30.03,SE,134,4.0,4.0,45,0.00,,,0.00,Wunderground v.1.15,2013-11-08 23:49:00,
2013-11-08 17:59:00,58.0,36.8,30.03,ESE,105,3.0,3.0,45,0.00,,,0.00,Wunderground v.1.15,2013-11-08 23:59:00,
2013-11-08 18:04:00,57.7,36.5,30.02,ESE,108,3.0,3.0,45,0.00,,,0.00,Wunderground v.1.15,2013-11-09 00:04:00,
2013-11-08 18:09:00,57.4,36.8,30.03,ESE,115,3.0,6.0,46,0.00,,,0.00,Wunderground v.1.15,2013-11-09 00:09:00,
2013-11-08 18:19:00,57.0,37.0,30.03,East,84,3.0,3.0,47,0.00,,,0.00,Wunderground v.1.15,2013-11-09 00:19:00,
2013-11-08 18:29:00,56.5,37.0,30.05,SSE,152,3.0,3.0,48,0.00,,,0.00,Wunderground v.1.15,2013-11-09 00:29:00,
2013-11-08 18:34:00,56.5,37.0,30.05,East,90,2.0,3.0,48,0.00,,,0.00,Wunderground v.1.15,2013-11-09 00:34:00,
2013-11-08 18:44:00,56.1,37.2,30.05,ENE,76,3.0,4.0,49,0.00,,,0.00,Wunderground v.1.15,2013-11-09 00:44:00,
2013-11-08 18:49:00,55.9,37.0,30.05,East,101,3.0,5.0,49,0.00,,,0.00,Wunderground v.1.15,2013-11-09 00:49:00,
2013-11-08 18:54:00,55.8,37.4,30.05,SSE,160,3.0,5.0,50,0.00,,,0.00,Wunderground v.1.15,2013-11-09 00:54:00,
2013-11-08 19:04:00,55.5,37.1,30.05,ESE,114,3.0,3.0,50,0.00,,,0.00,Wunderground v.1.15,2013-11-09 01:04:00,
2013-11-08 19:09:00,55.5,37.1,30.04,SE,134,3.0,9.0,50,0.00,,,0.00,Wunderground v.1.15,2013-11-09 01:09:00,
2013-11-08 19:19:00,55.4,37.1,30.03,ENE,65,5.0,5.0,50,0.00,,,0.00,Wunderground v.1.15,2013-11-09 01:19:00,
2013-11-08 19:24:00,55.3,37.0,30.03,SE,128,5.0,6.0,50,0.00,,,0.00,Wunderground v.1.15,2013-11-09 01:24:00,
2013-11-08 19:29:00,55.2,37.4,30.04,ESE,117,4.0,4.0,51,0.00,,,0.00,Wunderground v.1.15,2013-11-09 01:29:00,
2013-11-08 19:34:00,55.1,37.3,30.03,ESE,108,5.0,5.0,51,0.00,,,0.00,Wunderground v.1.15,2013-11-09 01:34:00,
2013-11-08 19:39:00,55.0,37.2,30.03,East,96,4.0,5.0,51,0.00,,,0.00,Wunderground v.1.15,2013-11-09 01:39:00,
2013-11-08 19:44:00,54.8,37.0,30.04,ESE,113,4.0,5.0,51,0.00,,,0.00,Wunderground v.1.15,2013-11-09 01:44:00,
2013-11-08 19:49:00,54.7,36.9,30.04,East,91,3.0,6.0,51,0.00,,,0.00,Wunderground v.1.15,2013-11-09 01:49:00,
2013-11-08 19:54:00,54.7,36.9,30.04,SE,142,4.0,6.0,51,0.00,,,0.00,Wunderground v.1.15,2013-11-09 01:54:00,
2013-11-08 19:59:00,54.6,36.8,30.05,ESE,122,4.0,4.0,51,0.00,,,0.00,Wunderground v.1.15,2013-11-09 01:59:00,
2013-11-08 20:04:00,54.5,36.7,30.05,ESE,118,3.0,8.0,51,0.00,,,0.00,Wunderground v.1.15,2013-11-09 02:04:00,
2013-11-08 20:09:00,54.5,36.7,30.05,ESE,108,4.0,4.0,51,0.00,,,0.00,Wunderground v.1.15,2013-11-09 02:09:00,
2013-11-08 20:14:00,54.3,36.5,30.05,NE,35,4.0,5.0,51,0.00,,,0.00,Wunderground v.1.15,2013-11-09 02:14:00,
2013-11-08 20:24:00,54.1,36.4,30.05,ESE,117,4.0,5.0,51,0.00,,,0.00,Wunderground v.1.15,2013-11-09 02:24:00,
2013-11-08 20:29:00,54.1,36.4,30.05,ESE,121,5.0,5.0,51,0.00,,,0.00,Wunderground v.1.15,2013-11-09 02:29:00,
2013-11-08 20:34:00,53.9,36.7,30.05,ESE,109,5.0,5.0,52,0.00,,,0.00,Wunderground v.1.15,2013-11-09 02:34:00,
2013-11-08 20:39:00,53.8,36.6,30.05,East,92,4.0,4.0,52,0.00,,,0.00,Wunderground v.1.15,2013-11-09 02:39:00,
2013-11-08 20:44:00,53.8,36.6,30.05,East,87,4.0,4.0,52,0.00,,,0.00,Wunderground v.1.15,2013-11-09 02:44:00,
2013-11-08 20:49:00,53.8,36.6,30.05,East,91,4.0,6.0,52,0.00,,,0.00,Wunderground v.1.15,2013-11-09 02:49:00,
2013-11-08 20:54:00,53.7,37.0,30.05,SE,129,4.0,6.0,53,0.00,,,0.00,Wunderground v.1.15,2013-11-09 02:54:00,
2013-11-08 20:59:00,53.7,37.0,30.05,NNW,328,4.0,4.0,53,0.00,,,0.00,Wunderground v.1.15,2013-11-09 02:59:00,
2013-11-08 21:04:00,53.5,36.8,30.05,East,92,4.0,4.0,53,0.00,,,0.00,Wunderground v.1.15,2013-11-09 03:04:00,
2013-11-08 21:09:00,53.4,37.2,30.05,ESE,115,4.0,4.0,54,0.00,,,0.00,Wunderground v.1.15,2013-11-09 03:09:00,
2013-11-08 21:14:00,53.4,37.2,30.05,SSE,154,4.0,4.0,54,0.00,,,0.00,Wunderground v.1.15,2013-11-09 03:14:00,
2013-11-08 21:24:00,53.0,37.3,30.06,NE,56,3.0,6.0,55,0.00,,,0.00,Wunderground v.1.15,2013-11-09 03:24:00,
2013-11-08 21:29:00,52.9,37.6,30.06,ESE,110,2.0,2.0,56,0.00,,,0.00,Wunderground v.1.15,2013-11-09 03:29:00,
2013-11-08 21:34:00,52.6,37.3,30.05,ESE,118,2.0,3.0,56,0.00,,,0.00,Wunderground v.1.15,2013-11-09 03:34:00,
2013-11-08 21:39:00,52.6,37.8,30.06,ENE,78,3.0,3.0,57,0.00,,,0.00,Wunderground v.1.15,2013-11-09 03:39:00,
2013-11-08 21:44:00,52.6,37.8,30.06,East,92,4.0,8.0,57,0.00,,,0.00,Wunderground v.1.15,2013-11-09 03:44:00,
2013-11-08 21:49:00,52.6,37.8,30.06,ESE,122,5.0,5.0,57,0.00,,,0.00,Wunderground v.1.15,2013-11-09 03:49:00,
2013-11-08 21:54:00,52.7,37.9,30.06,East,96,5.0,7.0,57,0.00,,,0.00,Wunderground v.1.15,2013-11-09 03:54:00,
2013-11-08 21:59:00,52.7,37.9,30.06,East,91,4.0,4.0,57,0.00,,,0.00,Wunderground v.1.15,2013-11-09 03:59:00,
2013-11-08 22:04:00,52.7,38.3,30.05,SE,129,4.0,4.0,58,0.00,,,0.00,Wunderground v.1.15,2013-11-09 04:04:00,
2013-11-08 22:09:00,52.8,38.4,30.06,East,101,3.0,11.0,58,0.00,,,0.00,Wunderground v.1.15,2013-11-09 04:09:00,
2013-11-08 22:14:00,53.4,38.5,30.06,ENE,60,5.0,11.0,57,0.00,,,0.00,Wunderground v.1.15,2013-11-09 04:14:00,
2013-11-08 22:19:00,53.6,38.7,30.06,South,175,5.0,5.0,57,0.00,,,0.00,Wunderground v.1.15,2013-11-09 04:19:00,
2013-11-08 22:29:00,53.7,38.8,30.05,ESE,112,5.0,5.0,57,0.00,,,0.00,Wunderground v.1.15,2013-11-09 04:29:00,
2013-11-08 22:34:00,53.7,38.8,30.06,ESE,116,5.0,5.0,57,0.00,,,0.00,Wunderground v.1.15,2013-11-09 04:34:00,
2013-11-08 22:39:00,53.5,38.6,30.06,East,101,4.0,9.0,57,0.00,,,0.00,Wunderground v.1.15,2013-11-09 04:39:00,
2013-11-08 22:44:00,53.3,38.4,30.06,ESE,110,3.0,9.0,57,0.00,,,0.00,Wunderground v.1.15,2013-11-09 04:44:00,
2013-11-08 22:49:00,53.0,38.6,30.06,ESE,108,4.0,4.0,58,0.00,,,0.00,Wunderground v.1.15,2013-11-09 04:49:00,
2013-11-08 22:54:00,52.9,39.0,30.06,ESE,102,3.0,5.0,59,0.00,,,0.00,Wunderground v.1.15,2013-11-09 04:54:00,
2013-11-08 22:59:00,52.8,38.9,30.06,ESE,110,3.0,3.0,59,0.00,,,0.00,Wunderground v.1.15,2013-11-09 04:59:00,
2013-11-08 23:04:00,52.6,38.7,30.06,NE,56,3.0,3.0,59,0.00,,,0.00,Wunderground v.1.15,2013-11-09 05:04:00,
2013-11-08 23:09:00,52.5,39.0,30.06,East,91,3.0,3.0,60,0.00,,,0.00,Wunderground v.1.15,2013-11-09 05:09:00,
2013-11-08 23:14:00,52.6,39.1,30.06,SE,129,3.0,3.0,60,0.00,,,0.00,Wunderground v.1.15,2013-11-09 05:14:00,
2013-11-08 23:19:00,52.7,39.2,30.06,SE,128,3.0,3.0,60,0.00,,,0.00,Wunderground v.1.15,2013-11-09 05:19:00,
2013-11-08 23:29:00,52.6,39.1,30.06,ESE,104,4.0,5.0,60,0.00,,,0.00,Wunderground v.1.15,2013-11-09 05:29:00,
2013-11-08 23:34:00,52.6,39.1,30.05,East,84,5.0,5.0,60,0.00,,,0.00,Wunderground v.1.15,2013-11-09 05:34:00,
2013-11-08 23:39:00,52.6,39.1,30.05,SSW,210,5.0,5.0,60,0.00,,,0.00,Wunderground v.1.15,2013-11-09 05:39:00,
2013-11-08 23:44:00,52.5,39.0,30.05,ESE,115,5.0,5.0,60,0.00,,,0.00,Wunderground v.1.15,2013-11-09 05:44:00,
2013-11-08 23:49:00,52.5,39.0,30.05,ESE,114,5.0,5.0,60,0.00,,,0.00,Wunderground v.1.15,2013-11-09 05:49:00,
2013-11-08 23:54:00,52.4,39.3,30.05,East,99,4.0,7.0,61,0.00,,,0.00,Wunderground v.1.15,2013-11-09 05:54:00,
2013-11-08 23:59:00,52.2,39.1,30.05,ESE,112,3.0,6.0,61,0.00,,,0.00,Wunderground v.1.15,2013-11-09 05:59:00,